createdAt,value
2022-11-13T00:01:30.760Z,1.00
2022-11-13T00:04:16.292Z,1.00
2022-11-13T00:07:02.157Z,1.00
2022-11-13T00:09:47.957Z,1.00
2022-11-13T00:12:33.446Z,1.00
2022-11-13T00:15:19.060Z,1.00
2022-11-13T00:18:04.850Z,1.00
2022-11-13T00:20:50.274Z,1.00
2022-11-13T00:23:36.861Z,99.90
2022-11-13T00:26:25.952Z,1.00
2022-11-13T00:29:11.424Z,99.90
2022-11-13T00:31:56.970Z,99.90
2022-11-13T00:34:49.732Z,99.90
2022-11-13T00:37:35.160Z,56.20
2022-11-13T00:40:20.924Z,4.50
2022-11-13T00:43:06.079Z,1.00
2022-11-13T00:45:52.112Z,1.00
2022-11-13T00:48:37.692Z,1.00
2022-11-13T00:51:23.469Z,1.00
2022-11-13T00:54:09.168Z,1.00
2022-11-13T00:56:54.719Z,1.00
2022-11-13T00:59:40.297Z,1.00
2022-11-13T01:02:25.976Z,1.00
2022-11-13T01:05:11.526Z,1.00
2022-11-13T01:07:57.291Z,1.00
2022-11-13T01:10:52.996Z,1.00
2022-11-13T01:13:41.017Z,1.00
2022-11-13T01:16:27.763Z,1.00
2022-11-13T01:19:14.166Z,1.00
2022-11-13T01:21:59.798Z,99.90
2022-11-13T01:24:45.234Z,99.90
2022-11-13T01:27:30.768Z,99.90
2022-11-13T01:30:16.736Z,2.30
2022-11-13T01:33:02.537Z,1.00
2022-11-13T01:35:48.020Z,1.00
2022-11-13T01:38:36.726Z,1.00
2022-11-13T01:41:32.001Z,1.00
2022-11-13T01:44:19.565Z,1.00
2022-11-13T01:47:05.585Z,1.00
2022-11-13T01:49:54.916Z,1.00
2022-11-13T01:52:42.441Z,1.00
2022-11-13T01:55:28.273Z,1.00
2022-11-13T01:58:14.783Z,1.00
2022-11-13T02:01:00.367Z,1.00
2022-11-13T02:03:45.588Z,1.00
2022-11-13T02:06:41.238Z,99.90
2022-11-13T02:09:31.598Z,99.90
2022-11-13T02:12:36.386Z,1.00
2022-11-13T02:15:25.267Z,1.00
2022-11-13T02:18:12.107Z,1.00
2022-11-13T02:21:20.222Z,1.00
2022-11-13T02:24:14.961Z,1.00
2022-11-13T02:27:06.220Z,1.00
2022-11-13T02:29:51.513Z,1.00
2022-11-13T02:32:46.364Z,1.00
2022-11-13T02:35:34.736Z,1.00
2022-11-13T02:38:20.283Z,1.00
2022-11-13T02:41:05.727Z,1.00
2022-11-13T02:43:51.326Z,1.00
2022-11-13T02:46:37.147Z,1.00
2022-11-13T02:49:22.580Z,1.00
2022-11-13T02:52:08.301Z,1.00
2022-11-13T02:54:53.941Z,1.00
2022-11-13T02:57:39.506Z,1.00
2022-11-13T03:00:25.346Z,1.00
2022-11-13T03:03:10.847Z,1.00
2022-11-13T03:05:56.307Z,1.00
2022-11-13T03:08:41.941Z,1.00
2022-11-13T03:11:27.525Z,1.00
2022-11-13T03:14:13.030Z,1.00
2022-11-13T03:16:58.769Z,1.00
2022-11-13T03:19:44.199Z,1.00
2022-11-13T03:22:29.590Z,1.00
2022-11-13T03:25:15.310Z,1.00
2022-11-13T03:28:01.284Z,1.00
2022-11-13T03:30:47.949Z,1.00
2022-11-13T03:33:33.571Z,1.00
2022-11-13T03:36:19.229Z,1.00
2022-11-13T03:39:05.293Z,1.00
2022-11-13T03:41:50.805Z,1.00
2022-11-13T03:44:36.319Z,1.00
2022-11-13T03:47:21.932Z,1.00
2022-11-13T03:50:07.712Z,1.00
2022-11-13T03:52:53.509Z,1.00
2022-11-13T03:55:39.532Z,1.00
2022-11-13T03:58:25.031Z,1.00
2022-11-13T04:01:10.472Z,1.00
2022-11-13T04:03:55.696Z,1.00
2022-11-13T04:06:41.566Z,1.00
2022-11-13T04:09:26.830Z,1.00
2022-11-13T04:12:13.530Z,1.00
2022-11-13T04:14:59.335Z,1.00
2022-11-13T04:17:44.956Z,1.00
2022-11-13T04:20:30.589Z,1.00
2022-11-13T04:23:17.859Z,1.00
2022-11-13T04:26:03.502Z,1.00
2022-11-13T04:28:48.740Z,1.00
2022-11-13T04:31:34.549Z,1.00
2022-11-13T04:34:19.866Z,1.00
2022-11-13T04:37:05.279Z,1.00
2022-11-13T04:39:50.905Z,39.50
2022-11-13T04:42:51.557Z,99.90
2022-11-13T04:45:37.523Z,99.90
2022-11-13T04:48:22.961Z,99.90
2022-11-13T04:51:08.758Z,99.90
2022-11-13T04:53:54.227Z,99.90
2022-11-13T04:56:39.936Z,99.90
2022-11-13T04:59:25.566Z,99.90
2022-11-13T05:02:11.175Z,99.90
2022-11-13T05:05:01.802Z,99.90
2022-11-13T05:07:50.119Z,99.90
2022-11-13T05:10:35.649Z,99.90
2022-11-13T05:13:21.258Z,99.90
2022-11-13T05:16:11.141Z,1.00
2022-11-13T05:18:58.623Z,1.00
2022-11-13T05:21:46.347Z,1.00
2022-11-13T05:24:32.086Z,1.00
2022-11-13T05:27:18.003Z,1.00
2022-11-13T05:30:04.535Z,1.00
2022-11-13T05:32:50.128Z,1.00
2022-11-13T05:35:35.794Z,1.00
2022-11-13T05:38:21.341Z,1.00
2022-11-13T05:41:13.483Z,1.00
2022-11-13T05:44:00.055Z,1.00
2022-11-13T05:46:45.469Z,1.00
2022-11-13T05:49:31.319Z,1.00
2022-11-13T05:52:16.694Z,1.00
2022-11-13T05:55:02.565Z,1.00
2022-11-13T05:57:48.164Z,1.00
2022-11-13T06:00:33.581Z,1.00
2022-11-13T06:03:19.184Z,1.00
2022-11-13T06:06:06.819Z,1.00
2022-11-13T06:08:53.533Z,1.00
2022-11-13T06:11:39.249Z,1.00
2022-11-13T06:14:24.872Z,1.00
2022-11-13T06:17:10.210Z,1.00
2022-11-13T06:19:55.779Z,1.00
2022-11-13T06:22:41.232Z,1.00
2022-11-13T06:25:28.107Z,1.00
2022-11-13T06:28:13.253Z,1.00
2022-11-13T06:31:07.751Z,1.00
2022-11-13T06:33:53.306Z,1.00
2022-11-13T06:36:38.780Z,1.00
2022-11-13T06:39:24.247Z,1.00
2022-11-13T06:42:09.623Z,1.00
2022-11-13T06:44:54.847Z,1.00
2022-11-13T06:47:40.664Z,1.00
2022-11-13T06:50:26.313Z,1.00
2022-11-13T06:53:11.619Z,1.00
2022-11-13T06:55:58.363Z,1.00
2022-11-13T06:58:44.302Z,1.00
2022-11-13T07:01:29.885Z,99.90
2022-11-13T07:04:15.447Z,99.90
2022-11-13T07:07:01.342Z,99.90
2022-11-13T07:09:47.161Z,99.90
2022-11-13T07:12:32.706Z,99.90
2022-11-13T07:15:18.739Z,99.90
2022-11-13T07:18:05.414Z,99.90
2022-11-13T07:20:50.956Z,99.90
2022-11-13T07:23:42.931Z,99.90
2022-11-13T07:26:28.256Z,99.90
2022-11-13T07:29:13.633Z,99.90
2022-11-13T07:31:59.154Z,99.90
2022-11-13T07:34:44.716Z,99.90
2022-11-13T07:37:30.416Z,31.60
2022-11-13T07:40:17.161Z,77.70
2022-11-13T07:43:03.615Z,43.60
2022-11-13T07:45:54.517Z,1.00
2022-11-13T07:48:40.388Z,1.00
2022-11-13T07:51:25.948Z,1.00
2022-11-13T07:54:11.299Z,1.00
2022-11-13T07:56:57.165Z,1.00
2022-11-13T07:59:42.801Z,1.00
2022-11-13T08:02:28.269Z,1.00
2022-11-13T08:05:15.374Z,1.00
2022-11-13T08:08:01.000Z,16.90
2022-11-13T08:10:46.530Z,1.00
2022-11-13T08:13:32.219Z,1.00
2022-11-13T08:16:17.672Z,1.00
2022-11-13T08:19:03.710Z,1.00
2022-11-13T08:21:49.001Z,1.00
2022-11-13T08:24:34.515Z,1.00
2022-11-13T08:27:23.637Z,1.00
2022-11-13T08:30:09.841Z,1.00
2022-11-13T08:32:55.157Z,1.00
2022-11-13T08:35:40.688Z,1.00
2022-11-13T08:38:26.885Z,1.00
2022-11-13T08:41:12.688Z,1.00
2022-11-13T08:43:58.281Z,99.90
2022-11-13T08:46:43.769Z,99.90
2022-11-13T08:49:29.323Z,99.90
2022-11-13T08:52:15.316Z,99.90
2022-11-13T08:55:00.620Z,99.90
2022-11-13T08:57:46.257Z,99.80
2022-11-13T09:00:33.151Z,1.00
2022-11-13T09:03:18.777Z,1.00
2022-11-13T09:06:08.397Z,1.00
2022-11-13T09:08:54.037Z,1.00
2022-11-13T09:11:39.571Z,1.00
2022-11-13T09:14:25.220Z,1.00
2022-11-13T09:17:10.765Z,1.00
2022-11-13T09:19:59.508Z,1.00
2022-11-13T09:22:47.456Z,1.00
2022-11-13T09:25:37.591Z,1.00
2022-11-13T09:28:23.669Z,1.00
2022-11-13T09:31:09.210Z,1.00
2022-11-13T09:33:54.344Z,1.00
2022-11-13T09:36:39.927Z,1.00
2022-11-13T09:39:25.531Z,1.00
2022-11-13T09:42:10.871Z,1.00
2022-11-13T09:45:07.299Z,1.00
2022-11-13T09:47:54.866Z,1.00
2022-11-13T09:50:41.074Z,1.00
2022-11-13T09:53:27.923Z,1.00
2022-11-13T09:56:32.810Z,1.00
2022-11-13T09:59:47.127Z,1.00
2022-11-13T10:03:07.312Z,1.00
2022-11-13T10:05:57.647Z,1.00
2022-11-13T10:08:52.344Z,1.00
2022-11-13T10:11:43.361Z,1.00
2022-11-13T10:14:42.852Z,1.00
2022-11-13T10:17:49.223Z,1.00
2022-11-13T10:20:44.653Z,1.00
2022-11-13T10:23:34.365Z,1.00
2022-11-13T10:26:22.206Z,1.00
2022-11-13T10:29:12.633Z,1.00
2022-11-13T10:31:59.519Z,1.00
2022-11-13T10:34:59.628Z,1.00
2022-11-13T10:38:21.535Z,1.00
2022-11-13T10:41:16.832Z,1.00
2022-11-13T10:44:07.083Z,1.00
2022-11-13T10:47:36.138Z,1.00
2022-11-13T10:50:29.260Z,1.00
2022-11-13T10:53:19.627Z,1.00
2022-11-13T10:56:26.303Z,1.00
2022-11-13T10:59:17.693Z,1.00
2022-11-13T11:02:15.137Z,1.00
2022-11-13T11:05:23.725Z,1.00
2022-11-13T11:08:10.948Z,1.00
2022-11-13T11:11:21.121Z,1.00
2022-11-13T11:14:28.266Z,1.00
2022-11-13T11:17:15.918Z,1.00
2022-11-13T11:20:13.636Z,1.00
2022-11-13T11:23:19.109Z,1.00
2022-11-13T11:26:24.016Z,1.00
2022-11-13T11:29:32.230Z,1.00
2022-11-13T11:32:31.149Z,1.00
2022-11-13T11:35:21.467Z,1.00
2022-11-13T11:38:19.303Z,1.00
2022-11-13T11:41:16.800Z,1.00
2022-11-13T11:44:11.911Z,1.00
2022-11-13T11:46:57.562Z,1.00
2022-11-13T11:49:44.515Z,1.00
2022-11-13T11:52:52.116Z,1.00
2022-11-13T11:55:57.113Z,1.00
2022-11-13T11:58:45.294Z,1.00
2022-11-13T12:02:00.572Z,1.00
2022-11-13T12:04:58.029Z,1.00
2022-11-13T12:08:17.010Z,1.00
2022-11-13T12:11:27.718Z,1.00
2022-11-13T12:14:25.853Z,1.00
2022-11-13T12:17:40.867Z,1.00
2022-11-13T12:20:38.211Z,1.00
2022-11-13T12:23:48.321Z,1.00
2022-11-13T12:26:47.311Z,1.00
2022-11-13T12:29:41.958Z,1.00
2022-11-13T12:32:48.564Z,1.00
2022-11-13T12:35:33.992Z,1.00
2022-11-13T12:38:28.647Z,1.00
2022-11-13T12:41:35.420Z,1.00
2022-11-13T12:44:25.140Z,1.00
2022-11-13T12:47:11.160Z,1.00
2022-11-13T12:50:06.854Z,1.00
2022-11-13T12:53:06.468Z,1.00
2022-11-13T12:56:00.263Z,1.00
2022-11-13T12:59:15.540Z,1.00
2022-11-13T13:02:09.176Z,1.00
2022-11-13T13:05:15.606Z,1.00
2022-11-13T13:08:07.153Z,1.00
2022-11-13T13:10:56.816Z,1.00
2022-11-13T13:13:55.204Z,1.00
2022-11-13T13:16:40.792Z,1.00
2022-11-13T13:19:34.042Z,1.00
2022-11-13T13:22:34.544Z,1.00
2022-11-13T13:25:28.860Z,1.00
2022-11-13T13:28:24.832Z,1.00
2022-11-13T13:31:30.484Z,1.00
2022-11-13T13:34:35.418Z,1.00
2022-11-13T13:37:48.486Z,1.00
2022-11-13T13:40:52.188Z,1.00
2022-11-13T13:43:54.938Z,1.00
2022-11-13T13:46:41.590Z,1.00
2022-11-13T13:49:28.695Z,1.00
2022-11-13T13:52:20.204Z,1.00
2022-11-13T13:55:07.740Z,1.00
2022-11-13T13:57:53.367Z,1.00
2022-11-13T14:00:53.498Z,1.00
2022-11-13T14:03:44.462Z,1.00
2022-11-13T14:06:29.916Z,1.00
2022-11-13T14:09:27.469Z,1.00
2022-11-13T14:12:22.397Z,1.00
2022-11-13T14:15:27.607Z,1.00
2022-11-13T14:18:18.188Z,1.00
2022-11-13T14:21:16.069Z,1.00
2022-11-13T14:24:03.513Z,1.00
2022-11-13T14:26:51.501Z,1.00
2022-11-13T14:30:01.550Z,1.00
2022-11-13T14:32:47.480Z,1.00
2022-11-13T14:35:32.987Z,1.00
2022-11-13T14:38:24.737Z,1.00
2022-11-13T14:41:28.325Z,1.00
2022-11-13T14:44:13.671Z,1.00
2022-11-13T14:47:02.502Z,1.00
2022-11-13T14:49:47.995Z,1.00
2022-11-13T14:52:33.413Z,1.00
2022-11-13T14:55:28.724Z,1.00
2022-11-13T14:58:14.779Z,1.00
2022-11-13T15:01:17.230Z,1.00
2022-11-13T15:04:02.450Z,1.00
2022-11-13T15:06:55.396Z,1.00
2022-11-13T15:09:40.991Z,1.00
2022-11-13T15:12:26.838Z,1.00
2022-11-13T15:15:21.007Z,1.00
2022-11-13T15:18:09.975Z,1.00
2022-11-13T15:20:55.209Z,1.00
2022-11-13T15:23:40.911Z,1.00
2022-11-13T15:26:26.173Z,1.00
2022-11-13T15:29:11.830Z,1.00
2022-11-13T15:31:57.778Z,1.00
2022-11-13T15:34:43.291Z,1.00
2022-11-13T15:37:29.160Z,1.00
2022-11-13T15:40:14.989Z,1.00
2022-11-13T15:43:01.354Z,1.00
2022-11-13T15:45:46.734Z,1.00
2022-11-13T15:48:32.436Z,1.00
2022-11-13T15:51:37.349Z,1.00
2022-11-13T15:54:29.524Z,1.00
2022-11-13T15:57:23.511Z,1.00
2022-11-13T16:00:17.990Z,1.00
2022-11-13T16:03:07.305Z,1.00
2022-11-13T16:05:52.965Z,1.00
2022-11-13T16:08:38.563Z,1.00
2022-11-13T16:11:24.252Z,1.00
2022-11-13T16:14:09.872Z,1.00
2022-11-13T16:16:55.477Z,1.00
2022-11-13T16:19:42.376Z,1.00
2022-11-13T16:22:28.022Z,1.00
2022-11-13T16:25:16.768Z,1.00
2022-11-13T16:28:01.986Z,1.00
2022-11-13T16:30:48.553Z,1.00
2022-11-13T16:33:34.440Z,1.00
2022-11-13T16:36:21.581Z,1.00
2022-11-13T16:39:09.614Z,1.00
2022-11-13T16:41:54.856Z,1.00
2022-11-13T16:44:41.479Z,1.00
2022-11-13T16:47:26.760Z,1.00
2022-11-13T16:50:18.109Z,1.00
2022-11-13T16:53:03.825Z,1.00
2022-11-13T16:55:49.157Z,1.00
2022-11-13T16:58:34.712Z,1.00
2022-11-13T17:01:22.316Z,1.00
2022-11-13T17:04:10.809Z,1.00
2022-11-13T17:06:57.922Z,1.00
2022-11-13T17:09:44.798Z,1.00
2022-11-13T17:12:30.268Z,1.00
2022-11-13T17:15:15.917Z,1.00
2022-11-13T17:18:02.083Z,1.00
2022-11-13T17:20:50.936Z,1.00
2022-11-13T17:23:36.857Z,1.00
2022-11-13T17:26:22.789Z,1.00
2022-11-13T17:29:08.315Z,1.00
2022-11-13T17:31:53.688Z,1.00
2022-11-13T17:34:39.337Z,1.00
2022-11-13T17:37:25.452Z,1.00
2022-11-13T17:40:11.748Z,1.00
2022-11-13T17:42:57.303Z,1.00
2022-11-13T17:45:42.770Z,1.00
2022-11-13T17:48:34.580Z,1.00
2022-11-13T17:51:20.214Z,1.00
2022-11-13T17:54:05.881Z,1.00
2022-11-13T17:56:52.051Z,1.00
2022-11-13T17:59:37.999Z,1.00
2022-11-13T18:02:24.145Z,1.00
2022-11-13T18:05:10.118Z,1.00
2022-11-13T18:07:55.821Z,1.00
2022-11-13T18:10:43.012Z,1.00
2022-11-13T18:13:28.665Z,1.00
2022-11-13T18:16:26.947Z,1.00
2022-11-13T18:19:12.374Z,1.00
2022-11-13T18:21:57.697Z,1.00
2022-11-13T18:24:43.571Z,1.00
2022-11-13T18:27:30.181Z,1.00
2022-11-13T18:30:16.077Z,1.00
2022-11-13T18:33:01.789Z,1.00
2022-11-13T18:35:47.015Z,1.00
2022-11-13T18:38:32.905Z,1.00
2022-11-13T18:41:20.926Z,1.00
2022-11-13T18:44:06.781Z,1.00
2022-11-13T18:46:52.017Z,1.00
2022-11-13T18:49:37.658Z,1.00
2022-11-13T18:52:25.582Z,1.00
2022-11-13T18:55:11.048Z,1.00
2022-11-13T18:57:56.685Z,1.00
2022-11-13T19:00:42.311Z,1.00
2022-11-13T19:03:28.218Z,1.00
2022-11-13T19:06:16.052Z,1.00
2022-11-13T19:09:06.245Z,1.00
2022-11-13T19:11:53.992Z,1.00
2022-11-13T19:14:39.325Z,1.00
2022-11-13T19:17:24.847Z,1.00
2022-11-13T19:20:10.638Z,1.00
2022-11-13T19:22:56.167Z,1.00
2022-11-13T19:25:42.302Z,1.00
2022-11-13T19:28:29.218Z,1.00
2022-11-13T19:31:17.033Z,1.00
2022-11-13T19:34:06.034Z,1.00
2022-11-13T19:36:52.569Z,1.00
2022-11-13T19:39:38.658Z,1.00
2022-11-13T19:42:24.309Z,1.00
2022-11-13T19:45:10.366Z,1.00
2022-11-13T19:47:55.975Z,1.00
2022-11-13T19:50:43.751Z,1.00
2022-11-13T19:53:29.554Z,1.00
2022-11-13T19:56:16.252Z,1.00
2022-11-13T19:59:01.961Z,1.00
2022-11-13T20:01:47.604Z,1.00
2022-11-13T20:04:33.261Z,1.00
2022-11-13T20:07:18.661Z,1.00
2022-11-13T20:10:04.607Z,1.00
2022-11-13T20:12:50.274Z,1.00
2022-11-13T20:15:36.257Z,1.00
2022-11-13T20:18:22.002Z,1.00
2022-11-13T20:21:07.934Z,1.00
2022-11-13T20:23:56.765Z,1.00
2022-11-13T20:26:43.171Z,1.00
2022-11-13T20:29:28.886Z,1.00
2022-11-13T20:32:14.447Z,1.00
2022-11-13T20:34:59.905Z,1.00
2022-11-13T20:37:45.577Z,1.00
2022-11-13T20:40:31.510Z,1.00
2022-11-13T20:43:17.043Z,1.00
2022-11-13T20:46:21.305Z,1.00
2022-11-13T20:49:06.641Z,1.00
2022-11-13T20:51:56.786Z,1.00
2022-11-13T20:54:42.777Z,1.00
2022-11-13T20:57:28.338Z,1.00
2022-11-13T21:00:14.141Z,1.00
2022-11-13T21:02:59.473Z,1.00
2022-11-13T21:05:45.008Z,1.00
2022-11-13T21:08:31.139Z,1.00
2022-11-13T21:11:30.418Z,1.00
2022-11-13T21:14:15.743Z,1.00
2022-11-13T21:17:01.270Z,1.00
2022-11-13T21:19:46.802Z,1.00
2022-11-13T21:22:32.487Z,1.00
2022-11-13T21:25:19.644Z,1.00
2022-11-13T21:28:05.678Z,1.00
2022-11-13T21:30:51.391Z,1.00
2022-11-13T21:33:41.091Z,1.00
2022-11-13T21:36:28.429Z,1.00
2022-11-13T21:39:14.004Z,1.00
2022-11-13T21:41:59.530Z,1.00
2022-11-13T21:44:45.152Z,1.00
2022-11-13T21:47:30.770Z,1.00
2022-11-13T21:50:16.322Z,1.00
2022-11-13T21:53:01.809Z,1.00
2022-11-13T21:55:51.309Z,1.00
2022-11-13T21:58:38.904Z,1.00
2022-11-13T22:01:25.611Z,1.00
2022-11-13T22:04:11.402Z,1.00
2022-11-13T22:06:56.856Z,1.00
2022-11-13T22:09:42.790Z,1.00
2022-11-13T22:12:28.314Z,1.00
2022-11-13T22:15:13.866Z,1.00
2022-11-13T22:17:59.510Z,1.00
2022-11-13T22:20:45.050Z,1.00
2022-11-13T22:23:31.196Z,1.00
2022-11-13T22:26:17.689Z,1.00
2022-11-13T22:29:03.226Z,1.00
2022-11-13T22:31:48.567Z,1.00
2022-11-13T22:34:34.058Z,1.00
2022-11-13T22:37:19.627Z,1.00
2022-11-13T22:40:05.660Z,1.00
2022-11-13T22:42:55.174Z,1.00
2022-11-13T22:45:40.778Z,1.00
2022-11-13T22:48:26.562Z,1.00
2022-11-13T22:51:18.219Z,1.00
2022-11-13T22:54:06.136Z,1.00
2022-11-13T22:56:51.711Z,1.00
2022-11-13T22:59:37.348Z,1.00
2022-11-13T23:02:22.985Z,1.00
2022-11-13T23:05:08.452Z,1.00
2022-11-13T23:07:53.900Z,1.00
2022-11-13T23:10:39.280Z,1.00
2022-11-13T23:13:25.729Z,1.00
2022-11-13T23:16:11.806Z,1.00
2022-11-13T23:18:58.902Z,1.00
2022-11-13T23:21:46.478Z,18.80
2022-11-13T23:24:33.287Z,6.90
2022-11-13T23:27:18.743Z,1.00
2022-11-13T23:30:04.782Z,1.00
2022-11-13T23:32:50.087Z,1.00
2022-11-13T23:35:35.736Z,1.00
2022-11-13T23:38:21.341Z,1.00
2022-11-13T23:41:09.315Z,1.20
2022-11-13T23:44:08.206Z,5.40
2022-11-13T23:46:54.914Z,11.90
2022-11-13T23:49:40.521Z,57.40
2022-11-13T23:52:26.152Z,83.40
2022-11-13T23:55:12.009Z,99.90
2022-11-13T23:58:03.481Z,99.90
